createdAt,value
2022-09-30T00:01:59.961Z,14.72
2022-09-30T00:04:46.080Z,14.41
2022-09-30T00:07:31.955Z,14.54
2022-09-30T00:10:18.374Z,14.84
2022-09-30T00:13:04.181Z,14.69
2022-09-30T00:15:50.525Z,14.07
2022-09-30T00:18:36.857Z,14.77
2022-09-30T00:21:23.679Z,14.75
2022-09-30T00:24:09.531Z,15.11
2022-09-30T00:26:55.460Z,15.08
2022-09-30T00:29:41.957Z,14.84
2022-09-30T00:32:28.222Z,14.53
2022-09-30T00:35:14.251Z,14.64
2022-09-30T00:38:00.765Z,15.05
2022-09-30T00:40:46.599Z,15.09
2022-09-30T00:43:39.248Z,15.12
2022-09-30T00:46:31.500Z,15.11
2022-09-30T00:49:21.411Z,14.99
2022-09-30T00:52:07.482Z,14.90
2022-09-30T00:54:53.878Z,15.20
2022-09-30T00:57:40.914Z,15.22
2022-09-30T01:00:27.312Z,15.29
2022-09-30T01:03:13.069Z,15.35
2022-09-30T01:05:59.418Z,15.32
2022-09-30T01:08:45.523Z,15.38
2022-09-30T01:11:31.405Z,15.29
2022-09-30T01:14:22.013Z,14.77
2022-09-30T01:17:31.354Z,15.17
2022-09-30T01:20:21.678Z,15.48
2022-09-30T01:23:23.117Z,15.46
2022-09-30T01:26:08.625Z,15.33
2022-09-30T01:29:21.617Z,14.82
2022-09-30T01:32:10.427Z,14.77
2022-09-30T01:35:08.990Z,15.44
2022-09-30T01:37:54.848Z,15.27
2022-09-30T01:40:44.065Z,14.80
2022-09-30T01:43:33.048Z,14.90
2022-09-30T01:46:20.748Z,14.98
2022-09-30T01:49:25.745Z,14.98
2022-09-30T01:52:15.706Z,15.00
2022-09-30T01:55:01.242Z,15.34
2022-09-30T01:57:53.234Z,15.46
2022-09-30T02:00:39.554Z,15.28
2022-09-30T02:03:31.369Z,15.06
2022-09-30T02:06:18.779Z,15.41
2022-09-30T02:09:06.378Z,15.38
2022-09-30T02:11:52.409Z,15.38
2022-09-30T02:14:46.225Z,15.63
2022-09-30T02:17:34.019Z,15.52
2022-09-30T02:20:22.010Z,14.99
2022-09-30T02:23:18.297Z,15.12
2022-09-30T02:26:07.094Z,15.11
2022-09-30T02:29:05.550Z,14.79
2022-09-30T02:31:53.174Z,15.00
2022-09-30T02:34:39.559Z,14.69
2022-09-30T02:37:32.962Z,14.70
2022-09-30T02:40:30.153Z,14.00
2022-09-30T02:43:16.872Z,13.13
2022-09-30T02:46:08.162Z,13.96
2022-09-30T02:48:54.104Z,14.76
2022-09-30T02:51:45.464Z,14.91
2022-09-30T02:54:37.901Z,14.99
2022-09-30T02:57:36.192Z,15.41
2022-09-30T03:00:22.736Z,15.24
2022-09-30T03:03:11.253Z,15.28
2022-09-30T03:05:57.769Z,15.16
2022-09-30T03:08:44.044Z,15.23
2022-09-30T03:11:30.189Z,15.49
2022-09-30T03:14:34.900Z,15.13
2022-09-30T03:17:26.786Z,15.48
2022-09-30T03:20:12.928Z,15.74
2022-09-30T03:23:18.666Z,15.51
2022-09-30T03:26:15.272Z,15.82
2022-09-30T03:29:04.330Z,15.43
2022-09-30T03:31:53.086Z,15.42
2022-09-30T03:34:46.700Z,14.22
2022-09-30T03:37:45.483Z,14.71
2022-09-30T03:40:40.930Z,15.29
2022-09-30T03:43:33.785Z,15.09
2022-09-30T03:46:27.373Z,14.65
2022-09-30T03:49:14.916Z,15.10
2022-09-30T03:52:01.099Z,14.86
2022-09-30T03:54:58.061Z,14.95
2022-09-30T03:57:44.749Z,15.08
2022-09-30T04:00:32.950Z,15.39
2022-09-30T04:03:19.789Z,15.27
2022-09-30T04:06:05.541Z,15.28
2022-09-30T04:08:53.868Z,14.92
2022-09-30T04:11:39.933Z,15.06
2022-09-30T04:14:28.581Z,15.22
2022-09-30T04:17:14.299Z,15.38
2022-09-30T04:20:00.154Z,15.19
2022-09-30T04:22:45.844Z,15.61
2022-09-30T04:25:32.087Z,15.39
2022-09-30T04:28:17.807Z,14.61
2022-09-30T04:31:05.098Z,15.27
2022-09-30T04:33:50.967Z,15.50
2022-09-30T04:36:37.020Z,15.51
2022-09-30T04:39:22.936Z,14.90
2022-09-30T04:42:09.254Z,15.30
2022-09-30T04:44:55.837Z,15.47
2022-09-30T04:47:45.537Z,15.73
2022-09-30T04:50:31.250Z,15.67
2022-09-30T04:53:18.240Z,15.55
2022-09-30T04:56:03.946Z,15.52
2022-09-30T04:58:50.400Z,15.79
2022-09-30T05:01:36.068Z,15.94
2022-09-30T05:04:22.089Z,15.80
2022-09-30T05:07:09.006Z,15.35
2022-09-30T05:09:55.565Z,15.44
2022-09-30T05:12:41.182Z,15.79
2022-09-30T05:15:27.524Z,15.68
2022-09-30T05:18:13.458Z,15.71
2022-09-30T05:20:59.634Z,15.28
2022-09-30T05:23:45.637Z,15.85
2022-09-30T05:26:32.958Z,15.95
2022-09-30T05:29:18.938Z,15.75
2022-09-30T05:32:06.014Z,15.72
2022-09-30T05:34:51.718Z,15.71
2022-09-30T05:37:38.205Z,15.50
2022-09-30T05:40:23.861Z,15.69
2022-09-30T05:43:09.828Z,15.80
2022-09-30T05:45:56.245Z,15.71
2022-09-30T05:48:42.568Z,15.55
2022-09-30T05:51:28.372Z,15.34
2022-09-30T05:54:14.638Z,15.51
2022-09-30T05:57:01.038Z,15.78
2022-09-30T05:59:47.674Z,15.72
2022-09-30T06:02:33.879Z,15.95
2022-09-30T06:05:22.119Z,16.02
2022-09-30T06:08:07.978Z,15.92
2022-09-30T06:10:54.817Z,15.60
2022-09-30T06:13:41.103Z,16.11
2022-09-30T06:16:27.567Z,15.94
2022-09-30T06:19:13.478Z,16.03
2022-09-30T06:22:00.335Z,15.48
2022-09-30T06:24:46.367Z,15.87
2022-09-30T06:27:35.675Z,15.69
2022-09-30T06:30:22.079Z,15.70
2022-09-30T06:33:08.206Z,16.06
2022-09-30T06:35:54.083Z,15.03
2022-09-30T06:38:40.599Z,14.23
2022-09-30T06:41:27.571Z,14.66
2022-09-30T06:44:13.609Z,15.30
2022-09-30T06:46:59.900Z,15.89
2022-09-30T06:49:49.433Z,15.97
2022-09-30T06:52:36.038Z,16.03
2022-09-30T06:55:24.255Z,16.39
2022-09-30T06:58:14.710Z,16.42
2022-09-30T07:01:03.852Z,16.14
2022-09-30T07:03:54.501Z,16.16
2022-09-30T07:06:41.843Z,16.10
2022-09-30T07:09:27.617Z,16.34
2022-09-30T07:12:13.759Z,16.32
2022-09-30T07:15:00.168Z,16.27
2022-09-30T07:17:51.836Z,16.54
2022-09-30T07:20:37.951Z,16.27
2022-09-30T07:23:27.756Z,16.54
2022-09-30T07:26:15.862Z,16.40
2022-09-30T07:29:02.563Z,16.10
2022-09-30T07:31:48.833Z,16.10
2022-09-30T07:34:36.183Z,16.03
2022-09-30T07:37:24.818Z,16.11
2022-09-30T07:40:11.674Z,16.32
2022-09-30T07:42:58.484Z,16.05
2022-09-30T07:45:46.119Z,15.61
2022-09-30T07:48:51.998Z,15.99
2022-09-30T07:51:40.955Z,15.39
2022-09-30T07:54:29.888Z,16.10
2022-09-30T07:57:16.566Z,16.08
2022-09-30T08:00:17.334Z,16.26
2022-09-30T08:03:09.065Z,16.15
2022-09-30T08:05:55.004Z,16.43
2022-09-30T08:08:43.893Z,16.27
2022-09-30T08:11:33.989Z,16.26
2022-09-30T08:14:25.817Z,16.64
2022-09-30T08:17:12.033Z,16.70
2022-09-30T08:19:58.137Z,16.41
2022-09-30T08:22:44.445Z,16.66
2022-09-30T08:25:30.840Z,15.77
2022-09-30T08:28:18.349Z,15.61
2022-09-30T08:31:10.538Z,15.59
2022-09-30T08:33:56.594Z,15.73
2022-09-30T08:36:42.887Z,14.78
2022-09-30T08:39:28.769Z,14.78
2022-09-30T08:42:35.608Z,14.16
2022-09-30T08:45:36.359Z,15.06
2022-09-30T08:48:39.158Z,15.20
2022-09-30T08:51:38.000Z,15.69
2022-09-30T08:54:26.280Z,15.36
2022-09-30T08:57:12.854Z,14.31
2022-09-30T09:00:06.008Z,14.45
2022-09-30T09:02:54.503Z,14.15
2022-09-30T09:06:24.992Z,14.23
2022-09-30T09:09:39.240Z,14.90
2022-09-30T09:12:32.424Z,15.33
2022-09-30T09:15:25.908Z,15.41
2022-09-30T09:18:23.565Z,15.05
2022-09-30T09:21:35.414Z,15.15
2022-09-30T09:24:25.246Z,15.57
2022-09-30T09:27:20.399Z,15.32
2022-09-30T09:30:12.460Z,15.14
2022-09-30T09:33:03.055Z,15.35
2022-09-30T09:36:18.992Z,15.07
2022-09-30T09:39:08.085Z,15.63
2022-09-30T09:42:07.954Z,14.98
2022-09-30T09:45:04.139Z,14.77
2022-09-30T09:47:53.824Z,15.11
2022-09-30T09:51:01.059Z,15.09
2022-09-30T09:53:49.566Z,15.34
2022-09-30T09:56:37.888Z,15.12
2022-09-30T09:59:24.627Z,15.26
2022-09-30T10:02:29.660Z,15.15
2022-09-30T10:05:26.730Z,15.27
2022-09-30T10:08:21.754Z,15.62
2022-09-30T10:11:20.868Z,15.50
2022-09-30T10:14:17.404Z,15.48
2022-09-30T10:17:05.658Z,14.97
2022-09-30T10:19:54.295Z,15.59
2022-09-30T10:22:40.882Z,16.30
2022-09-30T10:25:26.974Z,15.30
2022-09-30T10:28:23.936Z,15.44
2022-09-30T10:31:18.319Z,15.20
2022-09-30T10:34:24.886Z,15.47
2022-09-30T10:37:16.129Z,15.63
2022-09-30T10:40:06.462Z,16.25
2022-09-30T10:42:52.943Z,16.42
2022-09-30T10:45:41.291Z,16.01
2022-09-30T10:48:31.816Z,16.02
2022-09-30T10:51:34.010Z,16.08
2022-09-30T10:55:01.158Z,16.45
2022-09-30T10:57:49.916Z,16.37
2022-09-30T11:00:37.583Z,16.74
2022-09-30T11:03:49.302Z,16.53
2022-09-30T11:06:39.485Z,16.68
2022-09-30T11:09:35.885Z,15.92
2022-09-30T11:12:30.751Z,16.51
2022-09-30T11:15:22.467Z,16.77
2022-09-30T11:18:19.200Z,16.60
2022-09-30T11:21:46.094Z,16.92
2022-09-30T11:24:42.012Z,16.54
2022-09-30T11:27:43.440Z,15.92
2022-09-30T11:30:37.216Z,16.34
2022-09-30T11:34:20.899Z,16.57
2022-09-30T11:37:37.988Z,16.66
2022-09-30T11:41:01.365Z,16.14
2022-09-30T11:44:05.605Z,16.15
2022-09-30T11:47:08.817Z,16.12
2022-09-30T11:50:07.775Z,16.33
2022-09-30T11:53:30.946Z,15.79
2022-09-30T11:56:48.628Z,15.91
2022-09-30T11:59:47.650Z,16.23
2022-09-30T12:02:40.408Z,15.94
2022-09-30T12:05:31.096Z,16.21
2022-09-30T12:08:21.290Z,16.68
2022-09-30T12:11:11.815Z,16.99
2022-09-30T12:14:03.411Z,17.29
2022-09-30T12:16:51.462Z,16.88
2022-09-30T12:19:45.780Z,16.40
2022-09-30T12:22:43.281Z,16.94
2022-09-30T12:25:32.293Z,17.17
2022-09-30T12:28:42.747Z,17.46
2022-09-30T12:31:44.453Z,18.01
2022-09-30T12:34:33.917Z,17.72
2022-09-30T12:37:27.052Z,18.39
2022-09-30T12:40:21.006Z,17.45
2022-09-30T12:43:10.519Z,17.32
2022-09-30T12:46:03.335Z,16.93
2022-09-30T12:48:51.215Z,17.13
2022-09-30T12:51:41.607Z,16.51
2022-09-30T12:54:27.428Z,16.64
2022-09-30T12:57:13.831Z,17.61
2022-09-30T13:00:18.631Z,17.11
2022-09-30T13:03:05.851Z,16.99
2022-09-30T13:05:53.014Z,17.00
2022-09-30T13:08:43.189Z,16.71
2022-09-30T13:11:32.746Z,16.97
2022-09-30T13:14:26.012Z,16.05
2022-09-30T13:17:13.106Z,16.34
2022-09-30T13:19:59.493Z,16.32
2022-09-30T13:22:45.254Z,15.91
2022-09-30T13:25:51.176Z,15.93
2022-09-30T13:28:37.595Z,16.11
2022-09-30T13:31:24.344Z,15.76
2022-09-30T13:34:13.132Z,16.03
2022-09-30T13:37:18.942Z,16.68
2022-09-30T13:40:06.363Z,15.90
2022-09-30T13:42:53.394Z,16.25
2022-09-30T13:45:39.699Z,16.37
2022-09-30T13:48:28.821Z,16.31
2022-09-30T13:51:14.920Z,16.44
2022-09-30T13:54:03.795Z,16.00
2022-09-30T13:56:49.407Z,16.83
2022-09-30T13:59:54.842Z,16.80
2022-09-30T14:02:46.877Z,17.68
2022-09-30T14:05:37.311Z,17.74
2022-09-30T14:08:27.567Z,17.47
2022-09-30T14:11:32.374Z,17.09
2022-09-30T14:14:18.056Z,17.47
2022-09-30T14:17:30.020Z,17.73
2022-09-30T14:20:22.952Z,17.38
2022-09-30T14:23:12.944Z,16.81
2022-09-30T14:26:11.164Z,17.30
2022-09-30T14:29:09.209Z,17.47
2022-09-30T14:31:56.147Z,17.35
2022-09-30T14:37:48.879Z,17.75
2022-09-30T14:40:40.184Z,17.58
2022-09-30T14:43:28.874Z,18.14
2022-09-30T14:46:22.247Z,18.13
2022-09-30T14:49:18.685Z,18.18
2022-09-30T14:52:04.971Z,18.43
2022-09-30T14:54:51.249Z,16.91
2022-09-30T14:57:38.924Z,17.77
2022-09-30T15:00:29.354Z,18.45
2022-09-30T15:03:15.309Z,19.17
2022-09-30T15:06:01.100Z,17.50
2022-09-30T15:08:47.736Z,18.46
2022-09-30T15:11:39.324Z,18.20
2022-09-30T15:14:26.507Z,17.87
2022-09-30T15:17:18.169Z,16.64
2022-09-30T15:20:22.576Z,17.25
2022-09-30T15:23:10.002Z,17.77
2022-09-30T15:25:56.170Z,17.65
2022-09-30T15:28:41.954Z,16.68
2022-09-30T15:31:28.741Z,17.50
2022-09-30T15:34:19.227Z,18.04
2022-09-30T15:37:13.703Z,18.23
2022-09-30T15:40:18.910Z,17.81
2022-09-30T15:43:06.976Z,17.51
2022-09-30T15:45:55.235Z,18.35
2022-09-30T15:48:44.885Z,16.17
2022-09-30T15:51:32.385Z,16.98
2022-09-30T15:54:31.913Z,16.87
2022-09-30T15:57:37.262Z,17.13
2022-09-30T16:00:33.452Z,17.30
2022-09-30T16:03:27.520Z,16.61
2022-09-30T16:06:14.296Z,16.02
2022-09-30T16:09:02.249Z,16.77
2022-09-30T16:12:08.733Z,17.42
2022-09-30T16:14:56.015Z,17.21
2022-09-30T16:17:46.129Z,17.61
2022-09-30T16:20:32.359Z,17.82
2022-09-30T16:23:28.648Z,17.81
2022-09-30T16:26:24.422Z,17.88
2022-09-30T16:29:13.689Z,17.46
2022-09-30T16:32:01.778Z,17.53
2022-09-30T16:34:47.836Z,17.47
2022-09-30T16:37:35.183Z,17.05
2022-09-30T16:40:25.132Z,17.42
2022-09-30T16:43:11.842Z,17.33
2022-09-30T16:45:58.502Z,17.45
2022-09-30T16:48:44.647Z,17.62
2022-09-30T16:51:30.322Z,17.66
2022-09-30T16:54:16.243Z,17.74
2022-09-30T16:57:01.942Z,17.68
2022-09-30T16:59:47.982Z,17.36
2022-09-30T17:02:34.106Z,17.64
2022-09-30T17:05:21.321Z,17.41
2022-09-30T17:08:09.342Z,17.43
2022-09-30T17:10:57.368Z,17.45
2022-09-30T17:13:43.571Z,17.36
2022-09-30T17:16:30.307Z,16.89
2022-09-30T17:19:16.359Z,16.70
2022-09-30T17:22:03.520Z,17.12
2022-09-30T17:24:49.345Z,17.35
2022-09-30T17:27:35.774Z,17.17
2022-09-30T17:30:21.607Z,16.95
2022-09-30T17:33:10.969Z,16.80
2022-09-30T17:35:59.404Z,17.03
2022-09-30T17:38:45.928Z,16.99
2022-09-30T17:41:50.481Z,17.08
2022-09-30T17:44:39.178Z,16.93
2022-09-30T17:47:25.183Z,16.93
2022-09-30T17:50:12.937Z,16.79
2022-09-30T17:52:59.020Z,16.68
2022-09-30T17:55:47.269Z,16.62
2022-09-30T17:58:33.494Z,16.66
2022-09-30T18:01:20.673Z,16.82
2022-09-30T18:04:07.082Z,16.49
2022-09-30T18:06:53.725Z,16.26
2022-09-30T18:09:39.823Z,15.85
2022-09-30T18:12:25.765Z,16.10
2022-09-30T18:15:12.561Z,16.49
2022-09-30T18:17:58.346Z,16.59
2022-09-30T18:20:47.789Z,16.56
2022-09-30T18:23:33.718Z,16.13
2022-09-30T18:26:20.241Z,15.87
2022-09-30T18:29:06.446Z,16.20
2022-09-30T18:31:53.125Z,16.42
2022-09-30T18:34:39.037Z,16.24
2022-09-30T18:37:25.550Z,16.06
2022-09-30T18:40:11.783Z,15.92
2022-09-30T18:42:59.337Z,16.03
2022-09-30T18:45:52.925Z,15.60
2022-09-30T18:48:39.698Z,15.83
2022-09-30T18:51:25.916Z,15.81
2022-09-30T18:54:13.312Z,14.39
2022-09-30T18:56:59.912Z,14.58
2022-09-30T18:59:46.909Z,13.75
2022-09-30T19:02:33.562Z,14.06
2022-09-30T19:05:20.006Z,14.51
2022-09-30T19:08:06.113Z,15.26
2022-09-30T19:10:52.565Z,15.48
2022-09-30T19:13:39.458Z,14.95
2022-09-30T19:16:26.132Z,14.91
2022-09-30T19:19:12.143Z,15.35
2022-09-30T19:22:01.282Z,15.64
2022-09-30T19:24:47.367Z,15.77
2022-09-30T19:27:38.328Z,15.70
2022-09-30T19:30:25.555Z,15.71
2022-09-30T19:33:11.564Z,14.75
2022-09-30T19:36:13.880Z,14.89
2022-09-30T19:39:12.204Z,15.19
2022-09-30T19:42:03.171Z,13.94
2022-09-30T19:44:51.956Z,13.59
2022-09-30T19:47:37.958Z,14.17
2022-09-30T19:50:24.186Z,14.13
2022-09-30T19:53:11.739Z,13.89
2022-09-30T19:56:01.998Z,13.79
2022-09-30T19:58:48.898Z,14.71
2022-09-30T20:01:35.981Z,15.06
2022-09-30T20:04:23.197Z,15.37
2022-09-30T20:07:09.316Z,15.12
2022-09-30T20:09:56.802Z,14.03
2022-09-30T20:12:43.479Z,14.84
2022-09-30T20:15:48.411Z,15.05
2022-09-30T20:18:34.661Z,15.58
2022-09-30T20:21:20.725Z,15.48
2022-09-30T20:24:07.464Z,15.06
2022-09-30T20:26:53.869Z,15.23
2022-09-30T20:29:39.807Z,14.67
2022-09-30T20:32:30.666Z,15.02
2022-09-30T20:35:16.693Z,14.89
2022-09-30T20:38:02.826Z,14.65
2022-09-30T20:40:52.949Z,14.37
2022-09-30T20:43:39.268Z,15.00
2022-09-30T20:46:26.864Z,14.98
2022-09-30T20:49:13.155Z,15.13
2022-09-30T20:52:04.020Z,15.65
2022-09-30T20:54:50.062Z,15.79
2022-09-30T20:57:35.923Z,15.69
2022-09-30T21:00:22.668Z,15.74
2022-09-30T21:03:09.240Z,15.79
2022-09-30T21:05:55.519Z,15.69
2022-09-30T21:08:42.947Z,15.41
2022-09-30T21:11:34.713Z,15.73
2022-09-30T21:14:21.122Z,15.91
2022-09-30T21:17:08.198Z,15.99
2022-09-30T21:19:54.088Z,15.80
2022-09-30T21:22:40.228Z,15.36
2022-09-30T21:25:26.101Z,15.47
2022-09-30T21:28:12.854Z,14.94
2022-09-30T21:30:59.044Z,14.90
2022-09-30T21:33:45.390Z,15.55
2022-09-30T21:36:32.196Z,15.81
2022-09-30T21:39:18.470Z,15.81
2022-09-30T21:42:04.467Z,16.03
2022-09-30T21:44:50.583Z,15.59
2022-09-30T21:47:36.424Z,15.07
2022-09-30T21:50:22.410Z,15.14
2022-09-30T21:53:07.959Z,15.86
2022-09-30T21:55:54.580Z,15.38
2022-09-30T21:58:40.485Z,14.66
2022-09-30T22:01:26.797Z,15.18
2022-09-30T22:04:13.331Z,13.70
2022-09-30T22:06:59.431Z,13.73
2022-09-30T22:09:45.703Z,14.95
2022-09-30T22:12:33.694Z,15.27
2022-09-30T22:15:19.801Z,14.92
2022-09-30T22:18:08.252Z,14.20
2022-09-30T22:20:58.382Z,14.53
2022-09-30T22:23:46.224Z,14.00
2022-09-30T22:26:33.355Z,14.54
2022-09-30T22:29:19.636Z,15.34
2022-09-30T22:32:05.780Z,15.41
2022-09-30T22:35:10.461Z,14.62
2022-09-30T22:38:15.466Z,14.98
2022-09-30T22:41:01.505Z,15.54
2022-09-30T22:43:48.067Z,15.78
2022-09-30T22:46:34.715Z,15.83
2022-09-30T22:49:21.131Z,15.36
2022-09-30T22:52:06.764Z,15.37
2022-09-30T22:54:53.885Z,15.46
2022-09-30T22:57:39.757Z,15.41
2022-09-30T23:00:25.844Z,15.83
2022-09-30T23:03:11.937Z,16.07
2022-09-30T23:06:02.108Z,16.00
2022-09-30T23:08:48.756Z,15.82
2022-09-30T23:11:35.826Z,15.93
2022-09-30T23:14:22.013Z,15.91
2022-09-30T23:17:08.210Z,15.82
2022-09-30T23:19:54.049Z,15.80
2022-09-30T23:22:40.375Z,15.71
2022-09-30T23:25:26.206Z,15.90
2022-09-30T23:28:13.609Z,15.80
2022-09-30T23:31:00.818Z,15.65
2022-09-30T23:33:48.552Z,16.00
2022-09-30T23:36:36.381Z,16.02
2022-09-30T23:39:22.732Z,15.69
2022-09-30T23:42:08.629Z,15.76
2022-09-30T23:44:55.099Z,16.18
2022-09-30T23:47:40.968Z,16.16
2022-09-30T23:50:27.264Z,15.78
2022-09-30T23:53:13.174Z,16.19
2022-09-30T23:56:02.966Z,16.27
2022-09-30T23:58:50.499Z,15.83
